Time;durP1;ratioP1;P1;durP2;ratioP2;P2;SDS_P1;SDS_P2;PMS_P1;PMS_P2;Temp;Humidity;BMP_temperature;BMP_pressure;BME280_temperature;BME280_humidity;BME280_pressure;Samples;Min_cycle;Max_cycle;Signal;HPM_P1;HPM_P2
2022/07/18 00:01:44;;;;;;;18.08;7.13;;;;;;;13.14;78.98;102312.88;5137309;27;20072;-45
2022/07/18 00:04:09;;;;;;;13.32;6.93;;;;;;;13.12;79.35;102298.09;5136927;27;20034;-45
2022/07/18 00:06:35;;;;;;;14.13;6.32;;;;;;;13.12;79.25;102305.88;5137199;27;20019;-47
2022/07/18 00:09:00;;;;;;;15.30;6.50;;;;;;;13.11;79.31;102297.19;5137349;27;20513;-44
2022/07/18 00:11:26;;;;;;;10.23;6.25;;;;;;;13.05;79.90;102301.25;5136680;27;20363;-45
2022/07/18 00:13:51;;;;;;;13.60;6.80;;;;;;;12.97;79.97;102299.19;5137201;27;20034;-44
2022/07/18 00:16:17;;;;;;;16.10;7.28;;;;;;;12.94;80.33;102293.03;5137270;27;20035;-44
2022/07/18 00:18:43;;;;;;;15.05;7.30;;;;;;;12.88;80.11;102293.63;5136685;27;20059;-46
2022/07/18 00:21:09;;;;;;;16.33;6.78;;;;;;;12.89;80.53;102287.63;5136935;27;20114;-44
2022/07/18 00:23:34;;;;;;;19.90;7.63;;;;;;;12.84;80.69;102291.72;5137424;27;20058;-47
2022/07/18 00:25:59;;;;;;;12.65;7.32;;;;;;;12.84;80.73;102287.44;5136529;27;20023;-43
2022/07/18 00:28:25;;;;;;;12.75;7.50;;;;;;;12.79;81.17;102280.28;5136830;27;20023;-44
2022/07/18 00:30:50;;;;;;;11.95;7.07;;;;;;;12.74;81.15;102285.25;5137002;27;20028;-44
2022/07/18 00:33:15;;;;;;;17.50;7.40;;;;;;;12.67;81.58;102278.94;5136188;27;20031;-44
2022/07/18 00:35:41;;;;;;;15.48;7.50;;;;;;;12.61;82.37;102277.78;5136889;27;20367;-44
2022/07/18 00:38:06;;;;;;;16.63;7.50;;;;;;;12.58;82.64;102280.25;5137035;27;20370;-46
2022/07/18 00:40:32;;;;;;;12.77;7.72;;;;;;;12.53;82.79;102280.03;5136334;27;20023;-47
2022/07/18 00:42:57;;;;;;;15.20;7.38;;;;;;;12.49;83.43;102275.53;5136580;27;20034;-44
2022/07/18 00:45:23;;;;;;;21.63;8.77;;;;;;;12.49;83.42;102275.53;5136618;27;20019;-44
2022/07/18 00:47:51;;;;;;;14.27;7.68;;;;;;;12.46;83.34;102265.94;5136221;27;20054;-45
2022/07/18 00:50:20;;;;;;;16.38;7.07;;;;;;;12.42;83.40;102269.22;5135014;27;20432;-44
2022/07/18 00:52:46;;;;;;;14.65;8.20;;;;;;;12.38;83.65;102269.00;5136221;27;20410;-49
2022/07/18 00:55:11;;;;;;;13.18;8.10;;;;;;;12.34;83.87;102262.81;5136406;27;20535;-45
2022/07/18 00:57:39;;;;;;;16.85;8.48;;;;;;;12.34;84.40;102267.97;5136303;27;20023;-44
2022/07/18 01:02:55;;;;;;;14.48;7.68;;;;;;;12.37;83.63;102262.97;5136590;27;20039;-47
2022/07/18 01:05:20;;;;;;;18.63;7.75;;;;;;;12.36;83.45;102256.00;5136442;27;20019;-48
2022/07/18 01:07:45;;;;;;;13.98;7.57;;;;;;;12.28;84.20;102257.38;5135836;27;20027;-48
2022/07/18 01:10:11;;;;;;;16.73;8.13;;;;;;;12.24;84.13;102255.44;5135592;27;20502;-49
2022/07/18 01:12:37;;;;;;;14.73;7.50;;;;;;;12.27;84.28;102247.84;5136281;27;20031;-49
2022/07/18 01:15:03;;;;;;;14.75;8.00;;;;;;;12.25;84.14;102252.06;5135787;27;20575;-44
2022/07/18 01:17:29;;;;;;;14.52;8.35;;;;;;;12.26;84.07;102253.84;5135809;27;20035;-45
2022/07/18 01:19:54;;;;;;;17.05;8.48;;;;;;;12.26;84.41;102248.66;5136187;27;20115;-47
2022/07/18 01:22:20;;;;;;;13.95;7.88;;;;;;;12.22;84.33;102249.34;5135587;27;20023;-46
2022/07/18 01:24:45;;;;;;;14.25;8.23;;;;;;;12.15;84.76;102249.06;5135952;27;20428;-44
2022/07/18 01:27:19;;;;;;;14.70;7.95;;;;;;;12.14;84.83;102249.00;5135584;27;20092;-44
2022/07/18 01:29:46;;;;;;;14.13;7.43;;;;;;;12.08;85.14;102254.75;5135155;27;20034;-45
2022/07/18 01:32:13;;;;;;;20.65;8.23;;;;;;;12.07;84.79;102247.84;5135670;27;20027;-47
2022/07/18 01:34:38;;;;;;;19.77;8.68;;;;;;;12.08;85.20;102248.72;5135690;27;20019;-44
2022/07/18 01:37:05;;;;;;;13.00;7.63;;;;;;;11.97;85.29;102245.66;5135685;27;20088;-44
2022/07/18 01:39:30;;;;;;;19.77;8.60;;;;;;;11.98;85.72;102253.47;5135262;27;20028;-44
2022/07/18 01:42:01;;;;;;;17.60;8.32;;;;;;;11.99;86.01;102249.16;5134985;27;20470;-47
2022/07/18 01:44:27;;;;;;;20.48;9.02;;;;;;;12.01;85.89;102244.97;5135627;27;20085;-44
2022/07/18 01:46:53;;;;;;;17.25;8.80;;;;;;;11.99;85.73;102238.81;5135361;27;20039;-45
2022/07/18 01:49:19;;;;;;;13.48;8.75;;;;;;;12.03;85.69;102245.91;5134936;27;20019;-45
2022/07/18 01:51:46;;;;;;;14.63;8.57;;;;;;;12.03;85.51;102245.91;5135433;27;20019;-46
2022/07/18 01:54:11;;;;;;;17.60;8.73;;;;;;;11.94;85.60;102253.19;5135177;27;20066;-44
2022/07/18 01:56:36;;;;;;;19.58;9.60;;;;;;;11.93;85.72;102248.84;5134936;27;20055;-44
2022/07/18 01:59:02;;;;;;;17.25;9.68;;;;;;;11.94;85.71;102242.88;5135179;27;20023;-45
2022/07/18 02:01:27;;;;;;;15.13;8.70;;;;;;;11.92;85.37;102249.69;5135069;27;20365;-44
2022/07/18 02:03:53;;;;;;;16.50;8.90;;;;;;;11.93;85.91;102246.25;5134750;27;20040;-44
2022/07/18 02:06:18;;;;;;;16.30;9.38;;;;;;;11.88;85.45;102250.31;5134835;27;20031;-45
2022/07/18 02:08:43;;;;;;;17.38;9.80;;;;;;;11.82;85.56;102246.63;5135021;27;20071;-44
2022/07/18 02:11:09;;;;;;;15.88;9.35;;;;;;;11.89;85.45;102246.94;5134171;27;20023;-44
2022/07/18 02:13:35;;;;;;;16.92;8.88;;;;;;;11.87;85.89;102239.13;5134978;27;20023;-45
2022/07/18 02:16:00;;;;;;;33.10;9.75;;;;;;;11.93;86.88;102223.00;5135052;27;20145;-46
2022/07/18 02:18:26;;;;;;;17.40;9.60;;;;;;;11.91;85.85;102224.66;5134412;27;20047;-45
2022/07/18 02:20:51;;;;;;;14.45;9.90;;;;;;;11.94;85.64;102224.78;5134611;27;20030;-44
2022/07/18 02:23:17;;;;;;;12.52;8.52;;;;;;;11.88;85.38;102214.16;5134563;27;20038;-46
2022/07/18 02:25:42;;;;;;;16.08;8.98;;;;;;;11.88;85.16;102219.31;5134364;27;20023;-46
2022/07/18 02:28:07;;;;;;;17.65;9.65;;;;;;;11.91;85.19;102211.72;5134692;27;20023;-44
2022/07/18 02:30:33;;;;;;;19.33;9.50;;;;;;;11.86;85.40;102212.41;5134679;27;20444;-45
2022/07/18 02:32:58;;;;;;;13.90;9.18;;;;;;;11.81;85.61;102219.06;5134096;27;20027;-43
2022/07/18 02:35:24;;;;;;;17.30;10.05;;;;;;;11.72;86.74;102228.94;5134335;27;20019;-44
2022/07/18 02:37:49;;;;;;;20.77;10.38;;;;;;;11.68;86.92;102227.03;5134627;27;20031;-44
2022/07/18 02:40:14;;;;;;;18.33;11.52;;;;;;;11.67;87.42;102228.75;5133611;27;20038;-44
2022/07/18 02:42:40;;;;;;;19.52;11.95;;;;;;;11.61;87.48;102224.97;5134543;27;20509;-45
2022/07/18 02:45:07;;;;;;;20.77;11.43;;;;;;;11.63;86.44;102220.75;5134060;27;20027;-44
2022/07/18 02:47:32;;;;;;;18.87;11.23;;;;;;;11.63;86.45;102215.59;5134173;27;20027;-44
2022/07/18 02:49:57;;;;;;;18.42;11.02;;;;;;;11.58;86.36;102214.50;5133896;27;20394;-44
2022/07/18 02:52:22;;;;;;;22.75;12.30;;;;;;;11.58;86.72;102211.91;5133567;27;20023;-46
2022/07/18 02:54:48;;;;;;;21.10;10.90;;;;;;;11.51;86.66;102221.94;5134244;27;20057;-44
2022/07/18 02:57:13;;;;;;;21.67;11.70;;;;;;;11.44;87.57;102225.06;5133975;27;20102;-44
2022/07/18 02:59:39;;;;;;;21.17;12.45;;;;;;;11.40;87.79;102217.97;5133887;27;20019;-45
2022/07/18 03:02:05;;;;;;;22.52;11.50;;;;;;;11.35;88.03;102216.88;5134012;27;20068;-44
2022/07/18 03:04:31;;;;;;;23.92;12.38;;;;;;;11.47;88.57;102216.56;5134048;27;20023;-47
2022/07/18 03:06:56;;;;;;;23.75;12.30;;;;;;;11.49;88.87;102208.09;5133522;27;20023;-46
2022/07/18 03:09:22;;;;;;;18.42;11.75;;;;;;;11.51;89.20;102206.44;5133376;27;20062;-44
2022/07/18 03:11:48;;;;;;;18.83;11.55;;;;;;;11.51;87.81;102211.63;5134186;27;20395;-44
2022/07/18 03:14:14;;;;;;;17.58;10.70;;;;;;;11.49;87.14;102202.94;5132933;27;20027;-45
2022/07/18 03:16:39;;;;;;;22.08;11.48;;;;;;;11.48;87.67;102197.69;5134106;27;20047;-44
2022/07/18 03:19:04;;;;;;;20.40;11.70;;;;;;;11.45;87.32;102190.69;5133992;27;20026;-45
2022/07/18 03:21:30;;;;;;;24.40;12.57;;;;;;;11.46;87.43;102194.16;5133281;27;20028;-44
2022/07/18 03:23:55;;;;;;;23.48;12.00;;;;;;;11.36;87.31;102187.66;5133461;27;20027;-45
2022/07/18 03:26:21;;;;;;;20.45;11.27;;;;;;;11.22;87.67;102199.91;5133661;27;20022;-44
2022/07/18 03:28:46;;;;;;;20.05;11.52;;;;;;;11.18;88.61;102191.13;5133409;27;20015;-44
2022/07/18 03:31:11;;;;;;;22.05;12.00;;;;;;;11.13;88.61;102190.00;5133170;28;20027;-46
2022/07/18 03:33:38;;;;;;;25.08;13.18;;;;;;;11.12;89.47;102182.22;5133689;28;20124;-43
2022/07/18 03:36:03;;;;;;;27.55;14.00;;;;;;;11.10;89.97;102187.25;5133153;28;20091;-43
2022/07/18 03:38:29;;;;;;;29.38;14.77;;;;;;;11.05;90.51;102188.75;5133210;28;20050;-44
2022/07/18 03:40:54;;;;;;;24.40;14.05;;;;;;;11.07;91.20;102187.13;5133784;28;20348;-47
2022/07/18 03:43:19;;;;;;;25.83;13.90;;;;;;;11.13;90.87;102184.84;5132962;28;20027;-43
2022/07/18 03:45:46;;;;;;;22.83;14.77;;;;;;;11.12;90.26;102177.91;5133560;28;20023;-48
2022/07/18 03:48:12;;;;;;;25.13;14.73;;;;;;;11.17;90.11;102183.31;5133334;28;20474;-48
2022/07/18 03:50:37;;;;;;;30.80;14.93;;;;;;;11.16;90.14;102182.41;5133028;28;20037;-44
2022/07/18 03:53:02;;;;;;;23.77;14.25;;;;;;;11.10;90.52;102189.84;5133191;28;20567;-48
2022/07/18 03:55:27;;;;;;;22.30;13.27;;;;;;;11.17;90.50;102184.19;5132821;28;20034;-43
2022/07/18 03:57:53;;;;;;;24.52;15.10;;;;;;;11.32;90.89;102185.72;5133672;28;20526;-44
2022/07/18 04:00:18;;;;;;;23.88;14.05;;;;;;;11.33;90.26;102185.81;5133086;28;20039;-43
2022/07/18 04:02:46;;;;;;;34.33;15.00;;;;;;;11.40;89.80;102186.09;5133010;28;20026;-44
2022/07/18 04:05:13;;;;;;;26.65;14.18;;;;;;;11.50;90.50;102180.56;5133086;28;20072;-44
2022/07/18 04:07:40;;;;;;;26.95;14.52;;;;;;;11.60;90.43;102184.47;5133337;28;20446;-44
2022/07/18 04:10:06;;;;;;;23.23;13.73;;;;;;;11.59;89.45;102174.97;5132660;28;20051;-44
2022/07/18 04:12:32;;;;;;;23.05;12.90;;;;;;;11.58;89.01;102174.09;5132833;28;20023;-44
2022/07/18 04:14:58;;;;;;;24.10;13.45;;;;;;;11.53;88.26;102183.31;5133446;28;20442;-46
2022/07/18 04:17:23;;;;;;;29.38;14.48;;;;;;;11.60;88.31;102172.44;5132809;28;20019;-44
2022/07/18 04:19:49;;;;;;;20.33;13.52;;;;;;;11.63;88.82;102170.00;5133137;28;20024;-44
2022/07/18 04:22:14;;;;;;;26.75;14.55;;;;;;;11.67;88.28;102163.28;5133023;28;20023;-44
2022/07/18 04:24:40;;;;;;;25.00;13.68;;;;;;;11.68;88.60;102162.47;5135061;27;20466;-44
2022/07/18 04:27:05;;;;;;;26.05;13.75;;;;;;;11.69;88.63;102161.66;5136904;27;20198;-43
2022/07/18 04:29:31;;;;;;;26.15;14.30;;;;;;;11.68;88.80;102154.72;5137127;27;20023;-43
2022/07/18 04:31:57;;;;;;;27.70;13.65;;;;;;;11.66;88.30;102151.19;5136332;27;20035;-44
2022/07/18 04:34:23;;;;;;;23.40;14.10;;;;;;;11.63;88.79;102151.03;5136682;27;20039;-46
2022/07/18 04:36:48;;;;;;;26.10;15.10;;;;;;;11.60;89.21;102153.50;5136937;27;20027;-43
2022/07/18 04:39:13;;;;;;;26.25;15.55;;;;;;;11.60;89.52;102145.75;5135953;27;20030;-43
2022/07/18 04:41:39;;;;;;;27.13;15.20;;;;;;;11.60;89.73;102150.91;5136569;27;20044;-43
2022/07/18 04:44:04;;;;;;;26.42;16.52;;;;;;;11.67;89.33;102153.84;5136883;27;20023;-44
2022/07/18 04:46:29;;;;;;;29.35;15.68;;;;;;;11.77;89.00;102147.38;5136165;27;20458;-43
2022/07/18 04:48:55;;;;;;;30.35;16.27;;;;;;;11.82;88.68;102145.03;5136527;27;20019;-47
2022/07/18 04:51:20;;;;;;;26.23;16.75;;;;;;;11.89;88.79;102153.94;5136356;27;20052;-43
2022/07/18 04:53:45;;;;;;;30.58;16.98;;;;;;;11.96;88.62;102156.03;5136394;27;20019;-45
2022/07/18 04:56:10;;;;;;;27.02;16.85;;;;;;;11.98;88.75;102155.28;5136156;27;20023;-45
2022/07/18 04:58:36;;;;;;;26.75;16.38;;;;;;;12.05;88.41;102156.44;5136525;27;20076;-46
2022/07/18 05:01:01;;;;;;;30.67;16.90;;;;;;;12.13;88.44;102160.22;5136115;27;20019;-45
2022/07/18 05:03:26;;;;;;;27.85;17.23;;;;;;;12.28;88.68;102149.69;5135982;27;20023;-45
2022/07/18 05:05:52;;;;;;;29.33;17.23;;;;;;;12.44;88.38;102151.22;5135639;27;20043;-44
2022/07/18 05:08:18;;;;;;;31.80;16.77;;;;;;;12.67;87.77;102151.31;5135852;27;20027;-44
2022/07/18 05:10:43;;;;;;;33.55;15.63;;;;;;;12.78;86.73;102157.84;5135944;27;20137;-44
2022/07/18 05:13:08;;;;;;;31.08;16.65;;;;;;;12.87;86.54;102151.25;5135552;27;20107;-44
2022/07/18 05:15:34;;;;;;;30.23;17.02;;;;;;;12.98;86.18;102155.19;5136130;27;20772;-45
2022/07/18 05:17:59;;;;;;;29.77;17.48;;;;;;;13.04;84.97;102158.03;5136030;27;20056;-46
2022/07/18 05:20:26;;;;;;;35.28;17.42;;;;;;;13.22;84.41;102159.56;5135379;27;20027;-44
2022/07/18 05:22:52;;;;;;;31.48;17.10;;;;;;;13.40;81.78;102156.84;5135609;27;20031;-43
2022/07/18 05:25:19;;;;;;;33.72;18.27;;;;;;;13.59;81.04;102153.25;5135953;27;20023;-44
2022/07/18 05:27:44;;;;;;;39.15;17.67;;;;;;;13.73;80.06;102157.25;5135301;27;20515;-45
2022/07/18 05:30:11;;;;;;;30.63;17.17;;;;;;;13.83;79.90;102161.97;5135407;27;20031;-45
2022/07/18 05:32:38;;;;;;;28.15;17.15;;;;;;;13.92;79.43;102165.72;5135817;27;20596;-45
2022/07/18 05:35:04;;;;;;;27.73;17.73;;;;;;;14.02;78.81;102166.94;5135027;27;20031;-44
2022/07/18 05:37:30;;;;;;;29.75;18.08;;;;;;;14.05;79.11;102160.16;5134981;27;20049;-44
2022/07/18 05:39:55;;;;;;;32.70;17.50;;;;;;;14.23;77.88;102151.25;5135547;27;20024;-44
2022/07/18 05:42:21;;;;;;;28.10;16.30;;;;;;;14.41;76.04;102151.94;5135101;27;20023;-44
2022/07/18 05:44:46;;;;;;;28.33;16.67;;;;;;;14.58;75.65;102160.28;5135524;27;20026;-44
2022/07/18 05:47:13;;;;;;;32.13;17.42;;;;;;;14.63;76.34;102166.50;5135305;27;20030;-44
2022/07/18 05:49:38;;;;;;;29.50;15.82;;;;;;;14.80;74.67;102161.03;5134919;27;20046;-44
2022/07/18 05:52:04;;;;;;;31.23;15.80;;;;;;;14.97;73.46;102159.00;5134967;27;20466;-44
2022/07/18 05:54:29;;;;;;;26.48;14.57;;;;;;;15.02;74.66;102157.44;5135436;27;20033;-44
2022/07/18 05:56:54;;;;;;;25.48;14.50;;;;;;;15.17;72.07;102161.34;5134853;27;20517;-44
2022/07/18 05:59:20;;;;;;;23.85;14.77;;;;;;;15.26;72.63;102164.22;5134860;27;20027;-44
2022/07/18 06:01:46;;;;;;;29.50;13.75;;;;;;;15.45;71.43;102155.28;5135252;27;20485;-44
2022/07/18 06:04:11;;;;;;;26.63;15.43;;;;;;;15.61;71.03;102159.25;5134426;27;20030;-45
2022/07/18 06:06:37;;;;;;;31.38;14.95;;;;;;;15.80;69.61;102161.56;5134893;27;20037;-43
2022/07/18 06:09:03;;;;;;;29.77;14.60;;;;;;;15.94;69.33;102163.69;5134509;27;20416;-44
2022/07/18 06:11:29;;;;;;;22.65;13.95;;;;;;;16.15;68.87;102167.72;5134696;27;20043;-46
2022/07/18 06:13:54;;;;;;;27.45;14.07;;;;;;;16.22;69.66;102161.88;5135081;27;20027;-45
2022/07/18 06:16:19;;;;;;;26.42;13.23;;;;;;;16.42;67.14;102150.28;5134220;27;20023;-45
2022/07/18 06:18:45;;;;;;;29.00;13.23;;;;;;;16.61;66.16;102148.16;5134709;27;20042;-44
2022/07/18 06:21:10;;;;;;;30.38;12.43;;;;;;;16.77;65.11;102139.88;5134484;27;20027;-45
2022/07/18 06:23:36;;;;;;;26.95;13.73;;;;;;;16.95;64.42;102143.78;5134452;27;20497;-46
2022/07/18 06:26:01;;;;;;;25.55;13.45;;;;;;;17.13;63.88;102143.34;5134375;27;20023;-44
2022/07/18 06:28:28;;;;;;;28.77;13.90;;;;;;;17.30;62.64;102140.25;5134584;27;20022;-44
2022/07/18 06:30:53;;;;;;;30.45;13.07;;;;;;;17.45;62.65;102135.38;5134132;27;20019;-44
2022/07/18 06:33:18;;;;;;;24.15;12.63;;;;;;;17.61;62.09;102137.47;5134825;27;20026;-44
2022/07/18 06:35:44;;;;;;;30.92;12.80;;;;;;;17.75;61.00;102135.16;5134492;27;20095;-46
2022/07/18 06:38:09;;;;;;;23.77;12.93;;;;;;;17.90;60.93;102131.09;5133856;27;20026;-48
2022/07/18 06:40:34;;;;;;;35.00;12.98;;;;;;;18.02;61.19;102131.34;5134393;27;20107;-44
2022/07/18 06:43:00;;;;;;;24.35;12.40;;;;;;;18.19;60.79;102125.59;5134506;27;20024;-44
2022/07/18 06:45:25;;;;;;;30.83;12.90;;;;;;;18.36;60.41;102124.16;5133769;27;20023;-47
2022/07/18 06:47:51;;;;;;;19.80;12.68;;;;;;;18.52;59.38;102129.66;5133382;27;20039;-49
2022/07/18 06:50:16;;;;;;;25.73;11.90;;;;;;;18.67;58.87;102124.69;5133895;27;20030;-44
2022/07/18 06:52:43;;;;;;;21.73;12.10;;;;;;;18.78;58.23;102119.63;5133601;27;20027;-45
2022/07/18 06:55:10;;;;;;;24.53;12.10;;;;;;;19.00;58.12;102120.88;5133807;27;20019;-45
2022/07/18 06:57:35;;;;;;;27.35;11.75;;;;;;;19.05;57.52;102124.44;5134303;27;20027;-43
2022/07/18 07:00:00;;;;;;;29.10;12.23;;;;;;;19.13;57.45;102118.44;5133496;27;20023;-45
2022/07/18 07:02:26;;;;;;;26.50;12.27;;;;;;;19.24;56.88;102120.34;5133787;27;20054;-45
2022/07/18 07:04:51;;;;;;;27.27;12.48;;;;;;;19.39;56.11;102126.63;5134008;27;20088;-44
2022/07/18 07:07:16;;;;;;;27.38;12.70;;;;;;;19.56;57.21;102119.91;5133260;27;20026;-44
2022/07/18 07:09:42;;;;;;;21.85;13.00;;;;;;;19.64;55.68;102120.00;5133856;27;20040;-44
2022/07/18 07:12:07;;;;;;;27.02;13.05;;;;;;;19.74;55.75;102127.09;5133937;27;20057;-46
2022/07/18 07:14:32;;;;;;;32.05;12.82;;;;;;;19.83;54.92;102133.31;5133048;27;20019;-47
2022/07/18 07:16:58;;;;;;;26.10;12.45;;;;;;;19.90;54.86;102124.69;5133749;27;20043;-45
2022/07/18 07:19:23;;;;;;;27.33;13.05;;;;;;;20.06;54.63;102130.97;5133161;27;20039;-46
2022/07/18 07:21:48;;;;;;;33.67;14.07;;;;;;;20.19;54.08;102131.97;5133558;27;20106;-44
2022/07/18 07:24:13;;;;;;;25.45;13.43;;;;;;;20.29;55.00;102133.81;5133753;27;20019;-45
2022/07/18 07:26:39;;;;;;;27.75;13.30;;;;;;;20.46;53.46;102128.72;5133338;27;20160;-44
2022/07/18 07:29:04;;;;;;;30.33;12.27;;;;;;;20.62;52.92;102132.38;5133649;27;20033;-44
2022/07/18 07:31:30;;;;;;;25.92;11.65;;;;;;;20.70;52.50;102130.72;5133478;27;20034;-45
2022/07/18 07:33:55;;;;;;;28.35;12.20;;;;;;;20.77;51.65;102130.78;5133060;28;20102;-46
2022/07/18 07:36:21;;;;;;;22.98;10.10;;;;;;;20.98;51.35;102130.94;5133487;28;20103;-45
2022/07/18 07:38:46;;;;;;;24.67;10.48;;;;;;;21.00;52.63;102123.94;5133708;28;20434;-44
2022/07/18 07:41:13;;;;;;;20.88;10.27;;;;;;;21.10;51.12;102124.91;5132877;28;20347;-44
2022/07/18 07:43:38;;;;;;;34.60;9.68;;;;;;;21.20;50.41;102125.81;5133414;28;20015;-45
2022/07/18 07:46:04;;;;;;;18.48;8.73;;;;;;;21.40;49.83;102119.81;5133501;28;20133;-44
2022/07/18 07:48:29;;;;;;;21.33;8.90;;;;;;;21.50;49.08;102124.25;5132875;28;20019;-46
2022/07/18 07:50:54;;;;;;;25.40;9.02;;;;;;;21.64;49.65;102116.44;5133341;28;20027;-48
2022/07/18 07:53:20;;;;;;;24.38;8.75;;;;;;;21.84;49.59;102114.75;5133485;28;20023;-46
2022/07/18 07:55:45;;;;;;;20.10;7.53;;;;;;;22.00;48.84;102109.53;5133078;28;20061;-44
2022/07/18 07:58:11;;;;;;;18.55;7.57;;;;;;;22.19;49.35;102113.06;5133017;27;20103;-46
2022/07/18 08:00:37;;;;;;;20.70;7.90;;;;;;;22.41;48.15;102102.63;5137063;27;20466;-47
2022/07/18 08:03:04;;;;;;;16.83;6.43;;;;;;;22.58;48.45;102105.25;5137387;27;20154;-46
2022/07/18 08:05:31;;;;;;;;;;;;;;;22.62;49.31;102094.75;5137656;27;20031;-46
2022/07/18 08:07:58;;;;;;;17.20;5.90;;;;;;;22.82;45.53;102094.72;5137511;27;19918;-46
2022/07/18 08:10:24;;;;;;;21.15;5.90;;;;;;;22.95;45.41;102085.03;5136386;27;20047;-44
2022/07/18 08:12:49;;;;;;;15.35;4.97;;;;;;;23.18;44.91;102081.53;5137149;27;20031;-45
2022/07/18 08:15:15;;;;;;;10.93;4.75;;;;;;;23.39;44.73;102082.31;5137153;27;20024;-46
2022/07/18 08:17:40;;;;;;;10.50;3.72;;;;;;;23.50;42.45;102068.22;5136632;27;20393;-46
2022/07/18 08:20:07;;;;;;;12.75;4.10;;;;;;;23.67;42.64;102078.66;5137115;27;20157;-47
2022/07/18 08:22:32;;;;;;;9.27;3.80;;;;;;;23.77;39.37;102076.88;5137149;27;20036;-49
2022/07/18 08:24:58;;;;;;;12.30;3.35;;;;;;;23.94;40.98;102075.94;5136346;27;20019;-45
2022/07/18 08:27:23;;;;;;;8.38;3.45;;;;;;;24.06;38.22;102082.84;5136840;27;20023;-46
2022/07/18 08:29:48;;;;;;;10.07;3.50;;;;;;;24.21;39.15;102080.09;5136570;27;20063;-44
2022/07/18 08:32:13;;;;;;;10.25;3.33;;;;;;;24.39;40.13;102094.91;5136306;27;20027;-46
2022/07/18 08:34:39;;;;;;;6.38;2.72;;;;;;;24.48;39.24;102093.94;5137270;27;20111;-45
2022/07/18 08:37:05;;;;;;;10.65;3.05;;;;;;;24.61;38.18;102097.34;5136388;27;20061;-46
2022/07/18 08:39:30;;;;;;;12.40;3.28;;;;;;;24.73;37.93;102099.03;5136684;27;20027;-46
2022/07/18 08:41:57;;;;;;;9.75;2.78;;;;;;;24.81;39.35;102098.03;5136841;27;20019;-45
2022/07/18 08:44:23;;;;;;;8.50;3.00;;;;;;;24.96;39.48;102102.28;5136059;27;20035;-46
2022/07/18 08:46:50;;;;;;;11.15;3.00;;;;;;;25.09;37.12;102094.25;5136554;27;20034;-46
2022/07/18 08:49:15;;;;;;;12.20;2.80;;;;;;;25.18;37.10;102096.78;5117994;27;20027;-45
2022/07/18 08:51:42;;;;;;;8.25;2.80;;;;;;;25.20;36.13;102094.13;5136209;27;20031;-46
2022/07/18 08:54:08;;;;;;;11.73;3.13;;;;;;;25.28;36.33;102087.88;5136397;27;20016;-46
2022/07/18 08:56:34;;;;;;;13.05;2.80;;;;;;;25.42;36.11;102098.28;5136775;27;20026;-45
2022/07/18 08:59:02;;;;;;;10.00;2.95;;;;;;;25.53;35.84;102092.00;5135953;27;20036;-44
2022/07/18 09:01:27;;;;;;;9.25;2.50;;;;;;;25.61;34.35;102084.84;5136020;27;20530;-48
2022/07/18 09:04:14;;;;;;;13.38;2.83;;;;;;;25.67;34.19;102089.13;5136493;27;20099;-46
2022/07/18 09:06:46;;;;;;;9.90;3.00;;;;;;;25.77;34.40;102098.69;5135676;27;20035;-45
2022/07/18 09:09:13;;;;;;;8.82;2.80;;;;;;;25.80;34.10;102090.72;5135797;27;20034;-44
2022/07/18 09:12:03;;;;;;;8.80;2.40;;;;;;;26.00;37.01;102089.56;5135208;27;20107;-45
2022/07/18 09:14:30;;;;;;;8.73;2.53;;;;;;;26.17;35.07;102087.56;5135806;27;20031;-45
2022/07/18 09:17:11;;;;;;;7.20;2.58;;;;;;;26.43;35.67;102088.88;5136121;27;20038;-46
2022/07/18 09:19:38;;;;;;;7.05;2.40;;;;;;;26.68;34.99;102091.97;5135712;27;20031;-46
2022/07/18 09:22:17;;;;;;;7.50;2.60;;;;;;;26.88;34.38;102089.00;5135723;27;20023;-44
2022/07/18 09:24:59;;;;;;;10.02;2.88;;;;;;;27.08;34.98;102085.09;5135906;27;20458;-45
2022/07/18 09:27:25;;;;;;;8.75;2.90;;;;;;;27.30;34.16;102084.66;5135330;27;20441;-44
2022/07/18 09:30:08;;;;;;;8.82;3.00;;;;;;;27.36;33.61;102089.78;5135946;27;20023;-46
2022/07/18 09:32:34;;;;;;;8.30;2.28;;;;;;;27.37;32.10;102091.53;5135924;27;20363;-48
2022/07/18 09:35:05;;;;;;;8.35;2.47;;;;;;;27.59;35.63;102091.97;5135289;27;20034;-46
2022/07/18 09:37:31;;;;;;;11.40;2.53;;;;;;;27.60;32.07;102096.38;5135763;27;20038;-47
2022/07/18 09:40:13;;;;;;;7.63;2.75;;;;;;;27.73;33.20;102096.97;5135453;27;20019;-47
2022/07/18 09:42:39;;;;;;;8.35;2.83;;;;;;;27.80;31.90;102097.69;5135526;27;20038;-45
2022/07/18 09:45:05;;;;;;;9.50;2.60;;;;;;;27.86;31.43;102090.50;5135458;27;20075;-47
2022/07/18 09:47:30;;;;;;;6.15;2.65;;;;;;;27.99;31.90;102090.19;5135145;27;20026;-46
2022/07/18 09:49:56;;;;;;;10.07;2.50;;;;;;;28.11;31.97;102095.25;5135399;27;20076;-44
2022/07/18 09:52:21;;;;;;;7.43;2.70;;;;;;;28.16;31.10;102092.47;5135496;27;20050;-47
2022/07/18 09:54:46;;;;;;;9.35;2.70;;;;;;;28.23;31.35;102086.97;5135027;27;20031;-47
2022/07/18 09:57:26;;;;;;;6.15;2.45;;;;;;;28.19;31.72;102098.56;5134960;27;20023;-48
2022/07/18 09:59:52;;;;;;;9.25;2.67;;;;;;;28.14;31.56;102084.56;5135007;27;20015;-45
2022/07/18 10:02:18;;;;;;;6.97;2.30;;;;;;;28.39;33.62;102083.94;5134693;27;20034;-47
2022/07/18 10:04:44;;;;;;;5.88;2.33;;;;;;;28.84;33.26;102080.13;5135144;27;20019;-45
2022/07/18 10:07:09;;;;;;;9.20;2.85;;;;;;;29.51;31.62;102085.28;5135029;27;20027;-46
2022/07/18 10:09:38;;;;;;;8.30;2.90;;;;;;;29.64;31.91;102085.75;5134637;27;20064;-45
2022/07/18 10:12:04;;;;;;;7.78;2.72;;;;;;;29.57;29.75;102089.53;5134462;27;20054;-47
2022/07/18 10:14:30;;;;;;;9.70;3.00;;;;;;;29.43;29.72;102089.97;5134856;27;20087;-48
2022/07/18 10:16:55;;;;;;;9.95;2.88;;;;;;;29.75;29.80;102090.75;5134573;27;20031;-46
2022/07/18 10:19:21;;;;;;;11.80;2.50;;;;;;;30.01;29.03;102086.44;5134702;27;20042;-46
2022/07/18 10:21:48;;;;;;;12.75;3.15;;;;;;;30.45;29.31;102084.03;5134912;27;20031;-42
2022/07/18 10:24:17;;;;;;;11.60;2.85;;;;;;;30.49;29.03;102088.38;5133733;27;20473;-47
2022/07/18 10:26:42;;;;;;;14.55;2.88;;;;;;;31.04;28.64;102085.50;5134738;27;20049;-43
2022/07/18 10:29:09;;;;;;;7.90;3.07;;;;;;;32.13;27.73;102081.31;5134660;27;20027;-46
2022/07/18 10:31:41;;;;;;;7.90;2.30;;;;;;;33.06;26.16;102082.66;5134107;27;20289;-43
2022/07/18 10:34:06;;;;;;;10.90;2.80;;;;;;;33.48;25.09;102084.25;5134691;27;20027;-45
2022/07/18 10:36:33;;;;;;;10.65;3.30;;;;;;;33.68;25.09;102091.31;5134015;27;20779;-44
2022/07/18 10:39:06;;;;;;;9.05;2.80;;;;;;;33.91;23.81;102076.00;5134331;27;20023;-43
2022/07/18 10:41:32;;;;;;;9.73;2.70;;;;;;;34.12;23.80;102080.22;5134264;27;20382;-44
2022/07/18 10:43:57;;;;;;;7.53;2.80;;;;;;;35.24;24.49;102075.28;5134035;27;20033;-43
2022/07/18 10:46:23;;;;;;;10.67;2.40;;;;;;;35.77;22.63;102066.97;5134253;27;20094;-48
2022/07/18 10:48:53;;;;;;;9.10;2.50;;;;;;;36.22;23.18;102064.38;5134735;27;20023;-45
2022/07/18 10:51:19;;;;;;;12.77;3.45;;;;;;;35.95;22.64;102065.06;5133608;27;20030;-44
2022/07/18 10:53:59;;;;;;;11.43;2.83;;;;;;;35.63;22.63;102069.59;5134085;27;20027;-45
2022/07/18 10:56:27;;;;;;;8.73;2.40;;;;;;;35.90;22.36;102067.16;5134304;27;20023;-42
2022/07/18 10:58:55;;;;;;;16.27;2.83;;;;;;;36.45;23.56;102065.69;5133541;27;20027;-46
2022/07/18 11:01:22;;;;;;;10.50;2.85;;;;;;;36.48;22.11;102072.69;5133796;27;20023;-48
2022/07/18 11:03:49;;;;;;;13.18;2.60;;;;;;;37.21;22.93;102069.91;5134163;27;20019;-44
2022/07/18 11:06:14;;;;;;;9.60;2.60;;;;;;;37.27;22.50;102062.38;5133079;27;20110;-46
2022/07/18 11:08:40;;;;;;;7.57;3.00;;;;;;;37.36;21.13;102064.50;5134001;27;20127;-45
2022/07/18 11:11:08;;;;;;;12.80;2.33;;;;;;;37.90;21.53;102063.66;5133834;27;20391;-44
2022/07/18 11:13:48;;;;;;;7.78;2.42;;;;;;;38.24;22.97;102068.53;5133115;27;20019;-43